sensor_id;sensor_type;location;lat;lon;timestamp;temperature;humidity
25302;DHT22;13243;50.888;4.724;2023-04-29T00:01:02;12.20;99.90
25302;DHT22;13243;50.888;4.724;2023-04-29T00:06:04;12.10;99.90
25302;DHT22;13243;50.888;4.724;2023-04-29T00:11:06;11.90;99.90
25302;DHT22;13243;50.888;4.724;2023-04-29T00:16:08;11.80;99.90
25302;DHT22;13243;50.888;4.724;2023-04-29T00:21:14;11.70;99.90
25302;DHT22;13243;50.888;4.724;2023-04-29T00:26:16;11.70;99.90
25302;DHT22;13243;50.888;4.724;2023-04-29T00:31:18;11.60;99.90
25302;DHT22;13243;50.888;4.724;2023-04-29T00:36:20;11.60;99.90
25302;DHT22;13243;50.888;4.724;2023-04-29T00:41:22;11.60;99.90
25302;DHT22;13243;50.888;4.724;2023-04-29T00:46:24;11.60;99.90
25302;DHT22;13243;50.888;4.724;2023-04-29T00:51:26;11.60;99.90
25302;DHT22;13243;50.888;4.724;2023-04-29T00:56:30;11.50;99.90
25302;DHT22;13243;50.888;4.724;2023-04-29T01:01:35;11.50;99.90
25302;DHT22;13243;50.888;4.724;2023-04-29T01:06:53;11.40;99.90
25302;DHT22;13243;50.888;4.724;2023-04-29T01:17:18;11.50;99.90
25302;DHT22;13243;50.888;4.724;2023-04-29T01:22:21;11.50;99.90
25302;DHT22;13243;50.888;4.724;2023-04-29T01:27:37;11.40;99.90
25302;DHT22;13243;50.888;4.724;2023-04-29T01:32:54;11.30;99.90
25302;DHT22;13243;50.888;4.724;2023-04-29T01:43:26;11.30;99.90
25302;DHT22;13243;50.888;4.724;2023-04-29T01:48:29;11.30;99.90
25302;DHT22;13243;50.888;4.724;2023-04-29T01:53:32;11.10;99.90
25302;DHT22;13243;50.888;4.724;2023-04-29T01:58:34;11.10;99.90
25302;DHT22;13243;50.888;4.724;2023-04-29T02:03:36;11.10;99.90
25302;DHT22;13243;50.888;4.724;2023-04-29T02:08:38;11.00;99.90
25302;DHT22;13243;50.888;4.724;2023-04-29T02:13:40;11.10;99.90
25302;DHT22;13243;50.888;4.724;2023-04-29T02:18:42;11.20;99.90
25302;DHT22;13243;50.888;4.724;2023-04-29T02:23:44;11.00;99.90
25302;DHT22;13243;50.888;4.724;2023-04-29T02:28:46;11.00;99.90
25302;DHT22;13243;50.888;4.724;2023-04-29T02:33:48;11.00;99.90
25302;DHT22;13243;50.888;4.724;2023-04-29T02:38:50;11.00;99.90
25302;DHT22;13243;50.888;4.724;2023-04-29T02:43:54;10.90;99.90
25302;DHT22;13243;50.888;4.724;2023-04-29T02:48:56;11.00;99.90
25302;DHT22;13243;50.888;4.724;2023-04-29T02:53:58;10.80;99.90
25302;DHT22;13243;50.888;4.724;2023-04-29T02:58:59;10.80;99.90
25302;DHT22;13243;50.888;4.724;2023-04-29T03:04:01;10.80;99.90
25302;DHT22;13243;50.888;4.724;2023-04-29T03:09:03;10.90;99.90
25302;DHT22;13243;50.888;4.724;2023-04-29T03:14:05;10.90;99.90
25302;DHT22;13243;50.888;4.724;2023-04-29T03:19:07;10.90;99.90
25302;DHT22;13243;50.888;4.724;2023-04-29T03:24:09;10.90;99.90
25302;DHT22;13243;50.888;4.724;2023-04-29T03:29:11;10.90;99.90
25302;DHT22;13243;50.888;4.724;2023-04-29T03:34:13;10.80;99.90
25302;DHT22;13243;50.888;4.724;2023-04-29T03:39:16;10.70;99.90
25302;DHT22;13243;50.888;4.724;2023-04-29T03:44:18;10.80;99.90
25302;DHT22;13243;50.888;4.724;2023-04-29T03:49:20;10.70;99.90
25302;DHT22;13243;50.888;4.724;2023-04-29T03:54:22;10.80;99.90
25302;DHT22;13243;50.888;4.724;2023-04-29T03:59:24;10.80;99.90
25302;DHT22;13243;50.888;4.724;2023-04-29T04:04:26;10.80;99.90
25302;DHT22;13243;50.888;4.724;2023-04-29T04:09:28;10.80;99.90
25302;DHT22;13243;50.888;4.724;2023-04-29T04:14:30;10.80;99.90
25302;DHT22;13243;50.888;4.724;2023-04-29T04:19:32;10.70;99.90
25302;DHT22;13243;50.888;4.724;2023-04-29T04:24:34;10.70;99.90
25302;DHT22;13243;50.888;4.724;2023-04-29T04:29:36;10.60;99.90
25302;DHT22;13243;50.888;4.724;2023-04-29T04:34:37;10.80;99.90
25302;DHT22;13243;50.888;4.724;2023-04-29T04:39:42;10.70;99.90
25302;DHT22;13243;50.888;4.724;2023-04-29T04:44:44;10.60;99.90
25302;DHT22;13243;50.888;4.724;2023-04-29T04:49:47;10.70;99.90
25302;DHT22;13243;50.888;4.724;2023-04-29T04:54:50;10.70;99.90
25302;DHT22;13243;50.888;4.724;2023-04-29T04:59:52;10.70;99.90
25302;DHT22;13243;50.888;4.724;2023-04-29T05:04:54;10.70;99.90
25302;DHT22;13243;50.888;4.724;2023-04-29T05:09:56;10.70;99.90
25302;DHT22;13243;50.888;4.724;2023-04-29T05:14:58;10.70;99.90
25302;DHT22;13243;50.888;4.724;2023-04-29T05:20:00;10.70;99.90
25302;DHT22;13243;50.888;4.724;2023-04-29T05:25:02;10.70;99.90
25302;DHT22;13243;50.888;4.724;2023-04-29T05:30:04;10.70;99.90
25302;DHT22;13243;50.888;4.724;2023-04-29T05:35:07;10.70;99.90
25302;DHT22;13243;50.888;4.724;2023-04-29T05:40:09;10.60;99.90
25302;DHT22;13243;50.888;4.724;2023-04-29T05:45:11;10.60;99.90
25302;DHT22;13243;50.888;4.724;2023-04-29T05:50:13;10.70;99.90
25302;DHT22;13243;50.888;4.724;2023-04-29T05:55:14;10.60;99.90
25302;DHT22;13243;50.888;4.724;2023-04-29T06:00:16;10.60;99.90
25302;DHT22;13243;50.888;4.724;2023-04-29T06:05:18;10.50;99.90
25302;DHT22;13243;50.888;4.724;2023-04-29T06:10:21;10.50;99.90
25302;DHT22;13243;50.888;4.724;2023-04-29T06:15:23;10.30;99.90
25302;DHT22;13243;50.888;4.724;2023-04-29T06:20:24;10.30;99.90
25302;DHT22;13243;50.888;4.724;2023-04-29T06:25:26;10.40;99.90
25302;DHT22;13243;50.888;4.724;2023-04-29T06:30:28;10.40;99.90
25302;DHT22;13243;50.888;4.724;2023-04-29T06:35:30;10.50;99.90
25302;DHT22;13243;50.888;4.724;2023-04-29T06:40:32;10.50;99.90
25302;DHT22;13243;50.888;4.724;2023-04-29T06:45:34;10.50;99.90
25302;DHT22;13243;50.888;4.724;2023-04-29T06:50:36;10.50;99.90
25302;DHT22;13243;50.888;4.724;2023-04-29T06:55:37;10.60;99.90
25302;DHT22;13243;50.888;4.724;2023-04-29T07:00:40;10.70;99.90
25302;DHT22;13243;50.888;4.724;2023-04-29T07:05:45;10.60;99.90
25302;DHT22;13243;50.888;4.724;2023-04-29T07:10:54;10.50;99.90
25302;DHT22;13243;50.888;4.724;2023-04-29T07:15:56;10.40;99.90
25302;DHT22;13243;50.888;4.724;2023-04-29T07:21:01;10.30;99.90
25302;DHT22;13243;50.888;4.724;2023-04-29T07:26:13;10.40;99.90
25302;DHT22;13243;50.888;4.724;2023-04-29T07:31:16;10.40;99.90
25302;DHT22;13243;50.888;4.724;2023-04-29T07:36:18;10.40;99.90
25302;DHT22;13243;50.888;4.724;2023-04-29T07:41:20;10.50;99.90
25302;DHT22;13243;50.888;4.724;2023-04-29T07:46:23;10.60;99.90
25302;DHT22;13243;50.888;4.724;2023-04-29T07:51:24;10.70;99.90
25302;DHT22;13243;50.888;4.724;2023-04-29T07:56:30;10.80;99.90
25302;DHT22;13243;50.888;4.724;2023-04-29T08:01:32;10.90;99.90
25302;DHT22;13243;50.888;4.724;2023-04-29T08:06:34;10.80;99.90
25302;DHT22;13243;50.888;4.724;2023-04-29T08:11:36;11.00;99.90
25302;DHT22;13243;50.888;4.724;2023-04-29T08:16:38;11.00;99.90
25302;DHT22;13243;50.888;4.724;2023-04-29T08:21:40;11.10;99.90
25302;DHT22;13243;50.888;4.724;2023-04-29T08:26:42;11.10;99.90
25302;DHT22;13243;50.888;4.724;2023-04-29T08:31:44;11.20;99.90
25302;DHT22;13243;50.888;4.724;2023-04-29T08:36:46;11.20;99.90
25302;DHT22;13243;50.888;4.724;2023-04-29T08:41:47;11.10;99.90
25302;DHT22;13243;50.888;4.724;2023-04-29T08:46:52;11.20;99.90
25302;DHT22;13243;50.888;4.724;2023-04-29T08:51:54;11.30;99.90
25302;DHT22;13243;50.888;4.724;2023-04-29T08:56:57;11.20;99.90
25302;DHT22;13243;50.888;4.724;2023-04-29T09:01:59;11.20;99.90
25302;DHT22;13243;50.888;4.724;2023-04-29T09:07:02;11.20;99.90
25302;DHT22;13243;50.888;4.724;2023-04-29T09:12:04;11.40;99.90
25302;DHT22;13243;50.888;4.724;2023-04-29T09:17:07;11.60;99.90
25302;DHT22;13243;50.888;4.724;2023-04-29T09:22:08;11.70;99.90
25302;DHT22;13243;50.888;4.724;2023-04-29T09:27:25;12.10;99.90
25302;DHT22;13243;50.888;4.724;2023-04-29T09:32:28;12.30;99.90
25302;DHT22;13243;50.888;4.724;2023-04-29T09:37:30;12.30;99.90
25302;DHT22;13243;50.888;4.724;2023-04-29T09:42:41;12.10;99.90
25302;DHT22;13243;50.888;4.724;2023-04-29T09:47:43;12.20;99.90
25302;DHT22;13243;50.888;4.724;2023-04-29T09:52:46;12.40;99.90
25302;DHT22;13243;50.888;4.724;2023-04-29T09:57:48;12.50;99.90
25302;DHT22;13243;50.888;4.724;2023-04-29T10:02:53;12.90;99.90
25302;DHT22;13243;50.888;4.724;2023-04-29T10:07:57;12.80;99.90
25302;DHT22;13243;50.888;4.724;2023-04-29T10:13:00;12.80;99.90
25302;DHT22;13243;50.888;4.724;2023-04-29T10:18:12;13.00;99.90
25302;DHT22;13243;50.888;4.724;2023-04-29T10:23:15;13.00;99.90
25302;DHT22;13243;50.888;4.724;2023-04-29T10:28:19;12.90;99.90
25302;DHT22;13243;50.888;4.724;2023-04-29T10:33:22;12.70;99.90
25302;DHT22;13243;50.888;4.724;2023-04-29T10:38:35;12.90;99.90
25302;DHT22;13243;50.888;4.724;2023-04-29T10:43:38;13.00;99.90
25302;DHT22;13243;50.888;4.724;2023-04-29T10:48:39;13.10;99.90
25302;DHT22;13243;50.888;4.724;2023-04-29T10:59:02;13.30;99.90
25302;DHT22;13243;50.888;4.724;2023-04-29T11:04:04;13.30;99.90
25302;DHT22;13243;50.888;4.724;2023-04-29T11:09:14;13.30;99.90
25302;DHT22;13243;50.888;4.724;2023-04-29T11:19:45;13.50;99.90
25302;DHT22;13243;50.888;4.724;2023-04-29T11:24:49;13.40;99.90
25302;DHT22;13243;50.888;4.724;2023-04-29T11:29:55;13.60;99.90
25302;DHT22;13243;50.888;4.724;2023-04-29T11:35:15;13.70;99.90
25302;DHT22;13243;50.888;4.724;2023-04-29T11:40:18;14.00;99.90
25302;DHT22;13243;50.888;4.724;2023-04-29T11:45:19;14.40;99.90
25302;DHT22;13243;50.888;4.724;2023-04-29T11:50:21;14.40;99.90
25302;DHT22;13243;50.888;4.724;2023-04-29T11:55:23;14.20;99.90
25302;DHT22;13243;50.888;4.724;2023-04-29T12:00:26;14.30;99.90
25302;DHT22;13243;50.888;4.724;2023-04-29T12:05:28;14.20;99.90
25302;DHT22;13243;50.888;4.724;2023-04-29T12:10:31;14.50;99.90
25302;DHT22;13243;50.888;4.724;2023-04-29T12:15:33;14.60;99.90
25302;DHT22;13243;50.888;4.724;2023-04-29T12:20:38;14.70;99.90
25302;DHT22;13243;50.888;4.724;2023-04-29T12:25:40;15.00;99.90
25302;DHT22;13243;50.888;4.724;2023-04-29T12:30:44;15.00;99.90
25302;DHT22;13243;50.888;4.724;2023-04-29T12:35:48;14.90;99.90
25302;DHT22;13243;50.888;4.724;2023-04-29T12:40:51;14.50;99.90
25302;DHT22;13243;50.888;4.724;2023-04-29T12:45:57;14.30;99.90
25302;DHT22;13243;50.888;4.724;2023-04-29T12:51:01;14.20;99.90
25302;DHT22;13243;50.888;4.724;2023-04-29T12:56:04;14.30;99.90
25302;DHT22;13243;50.888;4.724;2023-04-29T13:01:06;14.40;99.90
25302;DHT22;13243;50.888;4.724;2023-04-29T13:06:08;14.60;99.90
25302;DHT22;13243;50.888;4.724;2023-04-29T13:11:10;14.70;99.90
25302;DHT22;13243;50.888;4.724;2023-04-29T13:16:14;14.80;99.90
25302;DHT22;13243;50.888;4.724;2023-04-29T13:21:16;14.60;99.90
25302;DHT22;13243;50.888;4.724;2023-04-29T13:26:18;14.50;99.90
25302;DHT22;13243;50.888;4.724;2023-04-29T13:31:20;14.60;99.90
25302;DHT22;13243;50.888;4.724;2023-04-29T13:36:21;14.40;99.90
25302;DHT22;13243;50.888;4.724;2023-04-29T13:41:23;14.50;99.90
25302;DHT22;13243;50.888;4.724;2023-04-29T13:46:27;14.50;99.90
25302;DHT22;13243;50.888;4.724;2023-04-29T13:51:32;14.70;99.90
25302;DHT22;13243;50.888;4.724;2023-04-29T13:56:53;14.90;99.90
25302;DHT22;13243;50.888;4.724;2023-04-29T14:02:15;15.20;99.90
25302;DHT22;13243;50.888;4.724;2023-04-29T14:07:26;15.20;99.90
25302;DHT22;13243;50.888;4.724;2023-04-29T14:12:28;15.10;99.90
25302;DHT22;13243;50.888;4.724;2023-04-29T14:17:30;15.20;99.90
25302;DHT22;13243;50.888;4.724;2023-04-29T14:22:32;15.10;99.90
25302;DHT22;13243;50.888;4.724;2023-04-29T14:27:34;15.00;99.90
25302;DHT22;13243;50.888;4.724;2023-04-29T14:32:37;14.90;99.90
25302;DHT22;13243;50.888;4.724;2023-04-29T14:37:39;14.80;99.90
25302;DHT22;13243;50.888;4.724;2023-04-29T14:42:41;14.60;99.90
25302;DHT22;13243;50.888;4.724;2023-04-29T14:47:42;14.70;99.90
25302;DHT22;13243;50.888;4.724;2023-04-29T14:52:44;14.80;99.90
25302;DHT22;13243;50.888;4.724;2023-04-29T14:57:47;14.90;99.90
25302;DHT22;13243;50.888;4.724;2023-04-29T15:02:49;15.10;99.90
25302;DHT22;13243;50.888;4.724;2023-04-29T15:07:51;15.30;99.90
25302;DHT22;13243;50.888;4.724;2023-04-29T15:12:53;15.50;99.90
25302;DHT22;13243;50.888;4.724;2023-04-29T15:17:55;15.40;99.90
25302;DHT22;13243;50.888;4.724;2023-04-29T15:22:57;15.50;99.90
25302;DHT22;13243;50.888;4.724;2023-04-29T15:28:00;15.60;99.90
25302;DHT22;13243;50.888;4.724;2023-04-29T15:33:02;15.70;99.90
25302;DHT22;13243;50.888;4.724;2023-04-29T15:38:06;15.60;99.90
25302;DHT22;13243;50.888;4.724;2023-04-29T15:43:08;15.60;99.90
25302;DHT22;13243;50.888;4.724;2023-04-29T15:48:10;15.70;99.90
25302;DHT22;13243;50.888;4.724;2023-04-29T15:53:12;15.60;99.90
25302;DHT22;13243;50.888;4.724;2023-04-29T15:58:13;15.60;99.90
25302;DHT22;13243;50.888;4.724;2023-04-29T16:03:15;15.40;99.90
25302;DHT22;13243;50.888;4.724;2023-04-29T16:08:17;15.30;99.90
25302;DHT22;13243;50.888;4.724;2023-04-29T16:13:19;15.10;99.90
25302;DHT22;13243;50.888;4.724;2023-04-29T16:18:21;15.20;99.90
25302;DHT22;13243;50.888;4.724;2023-04-29T16:23:23;15.30;99.90
25302;DHT22;13243;50.888;4.724;2023-04-29T16:28:25;15.30;99.90
25302;DHT22;13243;50.888;4.724;2023-04-29T16:33:27;15.30;99.90
25302;DHT22;13243;50.888;4.724;2023-04-29T16:38:29;15.30;99.90
25302;DHT22;13243;50.888;4.724;2023-04-29T16:43:32;15.30;99.90
25302;DHT22;13243;50.888;4.724;2023-04-29T16:48:34;15.30;99.90
25302;DHT22;13243;50.888;4.724;2023-04-29T16:53:36;15.40;99.90
25302;DHT22;13243;50.888;4.724;2023-04-29T16:58:38;15.20;99.90
25302;DHT22;13243;50.888;4.724;2023-04-29T17:03:40;15.30;99.90
25302;DHT22;13243;50.888;4.724;2023-04-29T17:08:42;15.40;99.90
25302;DHT22;13243;50.888;4.724;2023-04-29T17:13:45;15.30;99.90
25302;DHT22;13243;50.888;4.724;2023-04-29T17:18:47;15.30;99.90
25302;DHT22;13243;50.888;4.724;2023-04-29T17:23:49;15.30;99.90
25302;DHT22;13243;50.888;4.724;2023-04-29T17:28:52;15.30;99.90
25302;DHT22;13243;50.888;4.724;2023-04-29T17:33:54;15.10;99.90
25302;DHT22;13243;50.888;4.724;2023-04-29T17:39:05;15.10;99.90
25302;DHT22;13243;50.888;4.724;2023-04-29T17:44:10;15.00;99.90
25302;DHT22;13243;50.888;4.724;2023-04-29T17:49:13;15.00;99.90
25302;DHT22;13243;50.888;4.724;2023-04-29T17:54:15;14.90;99.90
25302;DHT22;13243;50.888;4.724;2023-04-29T17:59:16;14.80;99.90
25302;DHT22;13243;50.888;4.724;2023-04-29T18:04:18;14.80;99.90
25302;DHT22;13243;50.888;4.724;2023-04-29T18:09:20;14.70;99.90
25302;DHT22;13243;50.888;4.724;2023-04-29T18:14:22;14.70;99.90
25302;DHT22;13243;50.888;4.724;2023-04-29T18:19:25;14.60;99.90
25302;DHT22;13243;50.888;4.724;2023-04-29T18:24:27;14.60;99.90
25302;DHT22;13243;50.888;4.724;2023-04-29T18:29:29;14.40;99.90
25302;DHT22;13243;50.888;4.724;2023-04-29T18:34:31;14.30;99.90
25302;DHT22;13243;50.888;4.724;2023-04-29T18:39:33;14.10;99.90
25302;DHT22;13243;50.888;4.724;2023-04-29T18:44:35;13.90;99.90
25302;DHT22;13243;50.888;4.724;2023-04-29T18:49:37;13.70;99.90
25302;DHT22;13243;50.888;4.724;2023-04-29T18:54:39;13.50;99.90
25302;DHT22;13243;50.888;4.724;2023-04-29T18:59:41;13.40;99.90
25302;DHT22;13243;50.888;4.724;2023-04-29T19:04:44;13.30;99.90
25302;DHT22;13243;50.888;4.724;2023-04-29T19:09:46;13.10;99.90
25302;DHT22;13243;50.888;4.724;2023-04-29T19:14:48;12.90;99.90
25302;DHT22;13243;50.888;4.724;2023-04-29T19:19:50;12.70;99.90
25302;DHT22;13243;50.888;4.724;2023-04-29T19:24:52;12.60;99.90
25302;DHT22;13243;50.888;4.724;2023-04-29T19:29:54;12.50;99.90
25302;DHT22;13243;50.888;4.724;2023-04-29T19:34:56;12.30;99.90
25302;DHT22;13243;50.888;4.724;2023-04-29T19:39:58;12.20;99.90
25302;DHT22;13243;50.888;4.724;2023-04-29T19:45:00;12.20;99.90
25302;DHT22;13243;50.888;4.724;2023-04-29T19:50:02;12.20;99.90
25302;DHT22;13243;50.888;4.724;2023-04-29T19:55:05;12.00;99.90
25302;DHT22;13243;50.888;4.724;2023-04-29T20:00:09;11.80;99.90
25302;DHT22;13243;50.888;4.724;2023-04-29T20:05:14;11.70;99.90
25302;DHT22;13243;50.888;4.724;2023-04-29T20:10:15;11.70;99.90
25302;DHT22;13243;50.888;4.724;2023-04-29T20:15:18;11.70;99.90
25302;DHT22;13243;50.888;4.724;2023-04-29T20:20:20;11.70;99.90
25302;DHT22;13243;50.888;4.724;2023-04-29T20:25:21;11.50;99.90
25302;DHT22;13243;50.888;4.724;2023-04-29T20:30:24;11.50;99.90
25302;DHT22;13243;50.888;4.724;2023-04-29T20:35:27;11.50;99.90
25302;DHT22;13243;50.888;4.724;2023-04-29T20:40:30;11.40;99.90
25302;DHT22;13243;50.888;4.724;2023-04-29T20:45:34;11.30;99.90
25302;DHT22;13243;50.888;4.724;2023-04-29T20:50:37;11.30;99.90
25302;DHT22;13243;50.888;4.724;2023-04-29T20:55:39;11.20;99.90
25302;DHT22;13243;50.888;4.724;2023-04-29T21:00:41;11.10;99.90
25302;DHT22;13243;50.888;4.724;2023-04-29T21:05:43;11.10;99.90
25302;DHT22;13243;50.888;4.724;2023-04-29T21:10:45;11.10;99.90
25302;DHT22;13243;50.888;4.724;2023-04-29T21:15:47;11.00;99.90
25302;DHT22;13243;50.888;4.724;2023-04-29T21:20:49;10.90;99.90
25302;DHT22;13243;50.888;4.724;2023-04-29T21:25:51;10.80;99.90
25302;DHT22;13243;50.888;4.724;2023-04-29T21:30:53;10.70;99.90
25302;DHT22;13243;50.888;4.724;2023-04-29T21:35:55;10.70;99.90
25302;DHT22;13243;50.888;4.724;2023-04-29T21:40:58;10.50;99.90
25302;DHT22;13243;50.888;4.724;2023-04-29T21:46:00;10.70;99.90
25302;DHT22;13243;50.888;4.724;2023-04-29T21:51:02;10.70;99.90
25302;DHT22;13243;50.888;4.724;2023-04-29T21:56:06;10.60;99.90
25302;DHT22;13243;50.888;4.724;2023-04-29T22:01:08;10.60;99.90
25302;DHT22;13243;50.888;4.724;2023-04-29T22:06:29;10.60;99.90
25302;DHT22;13243;50.888;4.724;2023-04-29T22:11:32;10.60;99.90
25302;DHT22;13243;50.888;4.724;2023-04-29T22:16:34;10.60;99.90
25302;DHT22;13243;50.888;4.724;2023-04-29T22:21:38;10.60;99.90
25302;DHT22;13243;50.888;4.724;2023-04-29T22:26:43;10.50;99.90
25302;DHT22;13243;50.888;4.724;2023-04-29T22:31:45;10.50;99.90
25302;DHT22;13243;50.888;4.724;2023-04-29T22:36:47;10.40;99.90
25302;DHT22;13243;50.888;4.724;2023-04-29T22:41:49;10.30;99.90
25302;DHT22;13243;50.888;4.724;2023-04-29T22:46:51;10.20;99.90
25302;DHT22;13243;50.888;4.724;2023-04-29T22:51:52;10.10;99.90
25302;DHT22;13243;50.888;4.724;2023-04-29T22:56:54;10.00;99.90
25302;DHT22;13243;50.888;4.724;2023-04-29T23:01:56;10.00;99.90
25302;DHT22;13243;50.888;4.724;2023-04-29T23:06:58;9.90;99.90
25302;DHT22;13243;50.888;4.724;2023-04-29T23:12:00;9.90;99.90
25302;DHT22;13243;50.888;4.724;2023-04-29T23:17:03;10.00;99.90
25302;DHT22;13243;50.888;4.724;2023-04-29T23:22:04;10.00;99.90
25302;DHT22;13243;50.888;4.724;2023-04-29T23:27:07;10.10;99.90
25302;DHT22;13243;50.888;4.724;2023-04-29T23:32:09;10.20;99.90
25302;DHT22;13243;50.888;4.724;2023-04-29T23:37:11;10.20;99.90
25302;DHT22;13243;50.888;4.724;2023-04-29T23:42:13;10.30;99.90
25302;DHT22;13243;50.888;4.724;2023-04-29T23:47:15;10.20;99.90
25302;DHT22;13243;50.888;4.724;2023-04-29T23:52:17;10.00;99.90
25302;DHT22;13243;50.888;4.724;2023-04-29T23:57:18;9.90;99.90
